avis per tempestes more information blitzortung!


avis per Pluja more information rain snow radar


Visita la nostra xarxa de llocs de meteo:

Template documentation
and downloads

And another site



Thunderstorms From: 18-09-2018 09:00 Until: 19-09-2018 20:59 warning for: Thunderstorms Level: Yellow info button
Rain From: 18-09-2018 09:00 Until: 19-09-2018 20:59 warning for: Rain Level: Yellow info button

Pagina Historial Weather Underground text

Diari Resum Agost 16, 2017 Unitats:  Mètric    Imperial   Tant
« Previous Dia
SegĂźent Dia »
Diari Setmana Mensual Anual Personalitzada
  Maxima: Minima: Media:
Temperatura: -17.8 °C -6.3 °C -3.3 °C
Punt de rosada: -17.8 °C -9.7 °C -8.3 °C
Humitat: Humidity % 43 % 59 %
Wind Speed: 0 km/h 0 km/h 11.6 km/h
RĂ fegues de vent: 0 km/h - -
Vent:- - East
Pression baro: 0 hPa 34361.1 hPa -
Precipitacions: 0 mm    
Historical Graphs
 
 
Dades de taula per Agost 16, 2017
Temps Temperatura Punt de rosada Pression baro Vent Wind Speed RĂ fegues de vent Humitat Rainfall Rate (Hourly)
-17.8 °C -17.8 °C 0 hPa Calm     Humidity % 0 mm
00:04 -4.7 °C -8.2 °C 34428.8 hPa NNE 9 km/h 9 km/h 68 % 0 mm
00:05 -5.6 °C -7.8 °C 34462.7 hPa NE 2.6 km/h 5.1 km/h 78 % 0 mm
00:09 -4.7 °C -8.2 °C 34428.8 hPa NE 9 km/h 9 km/h 68 % 0 mm
00:14 -4.7 °C -8.2 °C 34462.7 hPa South 3.1 km/h   68 % 0 mm
00:15 -5.6 °C -7.8 °C 34462.7 hPa NNE 2.6 km/h 5.1 km/h 78 % 0 mm
00:19 -4.8 °C -8.2 °C 34462.7 hPa Calm     68 % 0 mm
00:24 -4.8 °C -8.3 °C 34462.7 hPa NNE 6 km/h 6 km/h 68 % 0 mm
00:25 -5.6 °C -7.8 °C 34462.7 hPa NNE 5.1 km/h 7.7 km/h 78 % 0 mm
00:29 -4.9 °C -8.4 °C 34462.7 hPa NW 3.1 km/h   68 % 0 mm
00:34 -4.9 °C -8.4 °C 34462.7 hPa NE 3.1 km/h   68 % 0 mm
00:35 -5.6 °C -7.8 °C 34462.7 hPa NNE 5.1 km/h 7.7 km/h 78 % 0 mm
00:39 -4.9 °C -8.4 °C 34462.7 hPa NE 3.1 km/h   68 % 0 mm
00:44 -5 °C -8.3 °C 34462.7 hPa NNE 6.3 km/h 6.3 km/h 69 % 0 mm
00:45 -5.6 °C -7.8 °C 34462.7 hPa NE 5.1 km/h 7.7 km/h 78 % 0 mm
00:49 -5 °C -8.3 °C 34462.7 hPa NNE 6.8 km/h 6.8 km/h 69 % 0 mm
00:54 -5 °C -8.3 °C 34462.7 hPa ENE 7.6 km/h 7.6 km/h 69 % 0 mm
00:55 -5.6 °C -7.7 °C 34462.7 hPa NNE 7.7 km/h 7.7 km/h 79 % 0 mm
00:59 -5.1 °C -8.4 °C 34462.7 hPa ENE 9 km/h 9 km/h 69 % 0 mm
01:04 -5.1 °C -8.4 °C 34462.7 hPa NE 6.8 km/h 6.8 km/h 69 % 0 mm
01:05 -5.6 °C -7.7 °C 34496.6 hPa NE 5.1 km/h 7.7 km/h 79 % 0 mm
01:09 -5.2 °C -8.5 °C 34462.7 hPa Calm     69 % 0 mm
01:14 -5.2 °C -8.4 °C 34462.7 hPa Calm     70 % 0 mm
01:15 -5.6 °C -7.7 °C 34462.7 hPa NE 5.1 km/h 7.7 km/h 79 % 0 mm
01:19 -5.3 °C -8.4 °C 34462.7 hPa NNE 3.1 km/h 3.1 km/h 71 % 0 mm
01:24 -5.3 °C -8.4 °C 34462.7 hPa NNW 3.1 km/h 3.1 km/h 71 % 0 mm
01:25 -5.6 °C -7.7 °C 34462.7 hPa NNE 2.6 km/h 7.7 km/h 79 % 0 mm
01:29 -5.4 °C -8.4 °C 34462.7 hPa NNW 3.1 km/h   71 % 0 mm
01:35 -5.7 °C -7.8 °C 34462.7 hPa NNE 5.1 km/h 5.1 km/h 79 % 0 mm
01:45 -5.8 °C -7.9 °C 34462.7 hPa NNE 2.6 km/h 5.1 km/h 79 % 0 mm
01:55 -5.8 °C -7.9 °C 34462.7 hPa NNE 2.6 km/h 7.7 km/h 79 % 0 mm
02:05 -5.9 °C -8.1 °C 34462.7 hPa NNE 2.6 km/h 7.7 km/h 79 % 0 mm
02:15 -6 °C -8.1 °C 34462.7 hPa NE 2.6 km/h 5.1 km/h 79 % 0 mm
02:25 -6.1 °C -8.2 °C 34462.7 hPa NE 2.6 km/h 7.7 km/h 79 % 0 mm
02:35 -6.2 °C -8.2 °C 34462.7 hPa NNE 2.6 km/h 5.1 km/h 80 % 0 mm
02:50 -6.3 °C -8.3 °C 34462.7 hPa NNE 2.6 km/h 7.7 km/h 80 % 0 mm
03:00 -6.3 °C -8.4 °C 34462.7 hPa North 2.6 km/h 5.1 km/h 79 % 0 mm
03:10 -6.3 °C -8.3 °C 34462.7 hPa Calm   5.1 km/h 80 % 0 mm
03:20 -6.3 °C -8.4 °C 34462.7 hPa North 5.1 km/h 7.7 km/h 79 % 0 mm
03:30 -6.3 °C -8.4 °C 34462.7 hPa NE 2.6 km/h 5.1 km/h 79 % 0 mm
03:40 -6.3 °C -8.3 °C 34462.7 hPa NNE 2.6 km/h 7.7 km/h 80 % 0 mm
03:50 -6.3 °C -8.3 °C 34428.8 hPa NNE 2.6 km/h 7.7 km/h 80 % 0 mm
04:00 -6.1 °C -8.3 °C 34462.7 hPa NNE 2.6 km/h 2.6 km/h 78 % 0 mm
04:10 -6 °C -8.2 °C 34462.7 hPa NE 5.1 km/h 5.1 km/h 78 % 0 mm
04:20 -5.8 °C -8.2 °C 34428.8 hPa NE 7.7 km/h 7.7 km/h 77 % 0 mm
04:30 -5.6 °C -7.9 °C 34428.8 hPa NE 7.7 km/h 7.7 km/h 77 % 0 mm
04:40 -5.5 °C -7.9 °C 34428.8 hPa NE 7.7 km/h 10.3 km/h 76 % 0 mm
04:50 -5.4 °C -7.9 °C 34462.7 hPa NE 7.7 km/h 10.3 km/h 76 % 0 mm
05:00 -5.2 °C -7.7 °C 34462.7 hPa NE 5.1 km/h 7.7 km/h 75 % 0 mm
05:10 -4.9 °C -7.7 °C 34462.7 hPa NE 7.7 km/h 10.3 km/h 73 % 0 mm
05:20 -4.8 °C -7.6 °C 34462.7 hPa NNE 2.6 km/h 7.7 km/h 73 % 0 mm
05:30 -4.6 °C -7.6 °C 34462.7 hPa NE 5.1 km/h 7.7 km/h 72 % 0 mm
05:40 -4.6 °C -7.7 °C 34462.7 hPa NNE 2.6 km/h 10.3 km/h 71 % 0 mm
05:50 -4.6 °C -7.7 °C 34462.7 hPa NE 7.7 km/h 10.3 km/h 71 % 0 mm
06:00 -3.9 °C -7.3 °C 34462.7 hPa NNE 5.1 km/h 10.3 km/h 69 % 0 mm
11:06 -3.7 °C -7.7 °C 34462.7 hPa NE 3.1 km/h 3.7 km/h 65 % 0 mm
11:07 -3.7 °C -7.7 °C 34462.7 hPa NNE 9 km/h 9 km/h 65 % 0 mm
11:12 -3.7 °C -7.7 °C 34462.7 hPa ENE 11.9 km/h 11.9 km/h 64 % 0 mm
11:17 -3.7 °C -7.7 °C 34462.7 hPa ESE 4.2 km/h 4.2 km/h 64 % 0 mm
11:22 -3.6 °C -7.6 °C 34462.7 hPa ENE 8 km/h 8 km/h 64 % 0 mm
11:27 -3.3 °C -7.4 °C 34462.7 hPa SE 9 km/h 9 km/h 64 % 0 mm
11:32 -3.2 °C -7.4 °C 34462.7 hPa SW 6.3 km/h 6.3 km/h 63 % 0 mm
11:37 -3.1 °C -7.4 °C 34462.7 hPa NW 6 km/h 6 km/h 62 % 0 mm
11:42 -2.8 °C -7.2 °C 34462.7 hPa West 3.7 km/h   62 % 0 mm
11:47 -2.8 °C -7.4 °C 34462.7 hPa WSW 3.1 km/h   60 % 0 mm
11:52 -2.8 °C -7.4 °C 34462.7 hPa NNE 3.1 km/h   60 % 0 mm
11:57 -2.7 °C -7.5 °C 34462.7 hPa WSW 6 km/h 6 km/h 59 % 0 mm
11:58 -2.6 °C -7.3 °C 34462.7 hPa NE 5.1 km/h 5.1 km/h 60 % 0 mm
12:03 -2.7 °C -7.6 °C 34462.7 hPa NE 11.9 km/h 11.9 km/h 59 % 0 mm
12:08 -2.7 °C -7.7 °C 34462.7 hPa South 6 km/h 6 km/h 58 % 0 mm
12:13 -2.4 °C -7.3 °C 34428.8 hPa North 6 km/h 6 km/h 59 % 0 mm
12:18 -2.6 °C -7.6 °C 34428.8 hPa ENE 11.9 km/h 11.9 km/h 58 % 0 mm
12:23 -2.7 °C -7.7 °C 34428.8 hPa ENE 9 km/h 9 km/h 58 % 0 mm
12:28 -2.6 °C -7.6 °C 34462.7 hPa WSW 6.3 km/h 6.3 km/h 58 % 0 mm
12:33 -2.4 °C -7.4 °C 34462.7 hPa NNE 6 km/h 6 km/h 58 % 0 mm
12:38 -2.3 °C -7.3 °C 34462.7 hPa ENE 9 km/h 9 km/h 58 % 0 mm
12:43 -2.3 °C -7.3 °C 34462.7 hPa East 11.9 km/h 11.9 km/h 58 % 0 mm
12:48 -2.2 °C -7.6 °C 34462.7 hPa ESE 9 km/h 9 km/h 56 % 0 mm
12:53 -2.1 °C -7.4 °C 34462.7 hPa South 15 km/h 15 km/h 56 % 0 mm
12:58 -2.1 °C -7.6 °C 34462.7 hPa ENE 15 km/h 15 km/h 55 % 0 mm
13:03 -1.9 °C -7.4 °C 34462.7 hPa ESE 11.9 km/h 11.9 km/h 55 % 0 mm
13:08 -1.6 °C -7.3 °C 34462.7 hPa SSE 15 km/h 15 km/h 54 % 0 mm
13:13 -1.4 °C -7.3 °C 34462.7 hPa NNE 9 km/h 9 km/h 53 % 0 mm
13:18 -1.5 °C -7.2 °C 34462.7 hPa NE 6 km/h 6 km/h 54 % 0 mm
13:23 -1.4 °C -7.3 °C 34462.7 hPa ESE 10.3 km/h 10.3 km/h 53 % 0 mm
13:28 -1.4 °C -7.4 °C 34428.8 hPa SSE 11.9 km/h 11.9 km/h 52 % 0 mm
13:33 -1 °C -7.1 °C 34428.8 hPa SE 9 km/h 9 km/h 52 % 0 mm
13:38 -1.2 °C -7.6 °C 34428.8 hPa SSE 11.9 km/h 11.9 km/h 50 % 0 mm
13:43 -1.2 °C -7.4 °C 34428.8 hPa SE 15 km/h 15 km/h 51 % 0 mm
13:48 -1.1 °C -7.4 °C 34428.8 hPa WSW 6 km/h 6 km/h 50 % 0 mm
13:53 -0.8 °C -7.2 °C 34428.8 hPa ESE 11.9 km/h 11.9 km/h 50 % 0 mm
13:58 -0.6 °C -7.1 °C 34428.8 hPa ESE 15.3 km/h 15.3 km/h 50 % 0 mm
14:03 -1.1 °C -7.8 °C 34428.8 hPa NNE 11.9 km/h 11.9 km/h 48 % 0 mm
14:08 -1.1 °C -7.7 °C 34428.8 hPa ESE 9 km/h 9 km/h 49 % 0 mm
14:13 -0.8 °C -7.4 °C 34395 hPa ESE 11.1 km/h 11.1 km/h 49 % 0 mm
14:18 -0.9 °C -7.7 °C 34395 hPa NNE 20.9 km/h 20.9 km/h 48 % 0 mm
14:23 -0.9 °C -7.7 °C 34395 hPa North 17.9 km/h 17.9 km/h 48 % 0 mm
14:28 -0.7 °C -7.7 °C 34395 hPa East 14 km/h 14 km/h 47 % 0 mm
14:33 -0.6 °C -7.8 °C 34395 hPa East 15 km/h 15 km/h 46 % 0 mm
14:38 -0.7 °C -7.9 °C 34395 hPa ESE 23.8 km/h 23.8 km/h 46 % 0 mm
14:43 -0.4 °C -7.9 °C 34395 hPa SE 15 km/h 15 km/h 45 % 0 mm
14:48 -0.4 °C -7.9 °C 34395 hPa SE 17.9 km/h 17.9 km/h 45 % 0 mm
14:53 -0.6 °C -8 °C 34395 hPa SE 22 km/h 22 km/h 45 % 0 mm
14:58 -0.6 °C -7.9 °C 34395 hPa ENE 11.9 km/h 11.9 km/h 45 % 0 mm
15:03 -0.7 °C -8.1 °C 34395 hPa NNE 9 km/h 9 km/h 45 % 0 mm
15:08 -0.6 °C -8.2 °C 34395 hPa ESE 15 km/h 15 km/h 44 % 0 mm
15:13 -0.6 °C -7.9 °C 34395 hPa South 11.9 km/h 11.9 km/h 45 % 0 mm
15:18 -0.6 °C -8.2 °C 34395 hPa SSE 15 km/h 15 km/h 44 % 0 mm
15:23 -0.6 °C -8 °C 34395 hPa East 20.9 km/h 20.9 km/h 45 % 0 mm
15:28 -0.4 °C -8.1 °C 34428.8 hPa East 17.9 km/h 17.9 km/h 44 % 0 mm
15:33 -0.5 °C -8.3 °C 34428.8 hPa SSE 23.8 km/h 23.8 km/h 43 % 0 mm
15:35 -0.4 °C -8.2 °C 34428.8 hPa SSW 20.9 km/h 20.9 km/h 43 % 0 mm
15:40 -0.4 °C -8.2 °C 34428.8 hPa East 23.8 km/h 23.8 km/h 43 % 0 mm
15:45 -0.3 °C -7.9 °C 34395 hPa ESE 15 km/h 15 km/h 44 % 0 mm
15:50 -0.4 °C -8.3 °C 34395 hPa SE 20.9 km/h 20.9 km/h 43 % 0 mm
15:55 -0.4 °C -8.3 °C 34395 hPa ESE 23.8 km/h 23.8 km/h 43 % 0 mm
16:05 -0.5 °C -8.3 °C 34395 hPa ENE 20.9 km/h 20.9 km/h 43 % 0 mm
16:10 -0.6 °C -8.2 °C 34395 hPa ENE 15 km/h 15 km/h 44 % 0 mm
16:15 -0.6 °C -8.2 °C 34395 hPa East 15 km/h 15 km/h 44 % 0 mm
16:20 -0.4 °C -8.1 °C 34395 hPa ESE 17.9 km/h 17.9 km/h 44 % 0 mm
16:25 -0.6 °C -8.2 °C 34395 hPa ESE 29.8 km/h 29.8 km/h 44 % 0 mm
16:30 -0.6 °C -8 °C 34395 hPa ENE 17.9 km/h 17.9 km/h 45 % 0 mm
16:35 -0.6 °C -8 °C 34395 hPa SE 23.8 km/h 23.8 km/h 45 % 0 mm
16:40 -0.7 °C -8.1 °C 34395 hPa ESE 32.8 km/h 32.8 km/h 45 % 0 mm
16:45 -0.8 °C -8.2 °C 34395 hPa ESE 28.2 km/h 28.2 km/h 45 % 0 mm
16:50 -0.8 °C -8.2 °C 34395 hPa East 26.9 km/h 26.9 km/h 45 % 0 mm
16:55 -0.7 °C -8.1 °C 34395 hPa ESE 20.9 km/h 20.9 km/h 45 % 0 mm
17:00 -0.8 °C -8.2 °C 34395 hPa ENE 26.9 km/h 26.9 km/h 45 % 0 mm
17:05 -0.9 °C -8.3 °C 34395 hPa ESE 26.9 km/h 26.9 km/h 45 % 0 mm
17:10 -1.1 °C -8.3 °C 34395 hPa ESE 20.9 km/h 20.9 km/h 46 % 0 mm
17:15 -1.1 °C -8.2 °C 34395 hPa East 15 km/h 15 km/h 46 % 0 mm
17:20 -0.9 °C -8.1 °C 34395 hPa East 26.9 km/h 26.9 km/h 46 % 0 mm
17:25 -1.2 °C -8.3 °C 34395 hPa East 29.8 km/h 29.8 km/h 46 % 0 mm
17:30 -1.3 °C -8.2 °C 34395 hPa ENE 26.9 km/h 26.9 km/h 47 % 0 mm
17:35 -1.3 °C -8.3 °C 34395 hPa ESE 26.9 km/h 26.9 km/h 47 % 0 mm
17:40 -1.4 °C -8.4 °C 34395 hPa East 29.8 km/h 29.8 km/h 47 % 0 mm
17:45 -1.6 °C -8.3 °C 34395 hPa ESE 23.8 km/h 23.8 km/h 48 % 0 mm
17:50 -1.6 °C -8.3 °C 34395 hPa ESE 25.4 km/h 25.4 km/h 48 % 0 mm
17:55 -1.6 °C -8.3 °C 34395 hPa East 26.9 km/h 26.9 km/h 48 % 0 mm
18:00 -1.7 °C -8.4 °C 34395 hPa SE 26.9 km/h 26.9 km/h 48 % 0 mm
18:05 -1.7 °C -8.3 °C 34395 hPa ESE 20.9 km/h 20.9 km/h 49 % 0 mm
18:10 -1.8 °C -8.3 °C 34395 hPa NE 20.9 km/h 20.9 km/h 49 % 0 mm
18:15 -1.9 °C -8.4 °C 34361.1 hPa ENE 29.8 km/h 29.8 km/h 49 % 0 mm
18:20 -1.9 °C -8.3 °C 34361.1 hPa ESE 28.2 km/h 28.2 km/h 50 % 0 mm
18:25 -2 °C -8.3 °C 34361.1 hPa ESE 25.1 km/h 25.1 km/h 50 % 0 mm
18:30 -2.2 °C -8.5 °C 34361.1 hPa East 35.7 km/h 35.7 km/h 50 % 0 mm
18:35 -2.2 °C -8.6 °C 34361.1 hPa ESE 23.8 km/h 23.8 km/h 50 % 0 mm
18:40 -2.3 °C -8.7 °C 34361.1 hPa ESE 29.8 km/h 29.8 km/h 50 % 0 mm
18:45 -2.3 °C -8.7 °C 34395 hPa SE 25.9 km/h 25.9 km/h 50 % 0 mm
18:50 -2.3 °C -8.7 °C 34395 hPa ESE 20.9 km/h 20.9 km/h 50 % 0 mm
18:55 -2.5 °C -8.8 °C 34395 hPa ESE 20.9 km/h 20.9 km/h 50 % 0 mm
19:00 -2.6 °C -8.8 °C 34395 hPa ENE 23.8 km/h 23.8 km/h 50 % 0 mm
19:05 -2.7 °C -8.9 °C 34395 hPa SE 17.9 km/h 17.9 km/h 50 % 0 mm
19:10 -2.7 °C -8.8 °C 34395 hPa ESE 20.9 km/h 20.9 km/h 51 % 0 mm
19:15 -2.7 °C -8.8 °C 34395 hPa East 17.9 km/h 17.9 km/h 51 % 0 mm
19:20 -2.9 °C -8.7 °C 34395 hPa ESE 32.8 km/h 32.8 km/h 53 % 0 mm
19:25 -2.9 °C -8.7 °C 34395 hPa ESE 15 km/h 15 km/h 53 % 0 mm
19:30 -3.1 °C -8.8 °C 34395 hPa ENE 20.9 km/h 20.9 km/h 53 % 0 mm
19:35 -3 °C -8.8 °C 34395 hPa SSE 15 km/h 15 km/h 53 % 0 mm
19:40 -3.1 °C -8.7 °C 34395 hPa ESE 16.1 km/h 16.1 km/h 54 % 0 mm
19:45 -3.1 °C -8.7 °C 34395 hPa North 11.9 km/h 11.9 km/h 54 % 0 mm
19:50 -3.2 °C -8.8 °C 34395 hPa ESE 15 km/h 15 km/h 54 % 0 mm
19:55 -3.2 °C -8.8 °C 34395 hPa ENE 15 km/h 15 km/h 54 % 0 mm
20:00 -3.2 °C -8.8 °C 34395 hPa NE 11.9 km/h 11.9 km/h 54 % 0 mm
20:05 -3.3 °C -8.8 °C 34395 hPa NE 15 km/h 15 km/h 54 % 0 mm
20:10 -3.3 °C -8.7 °C 34395 hPa East 18.3 km/h 18.3 km/h 55 % 0 mm
20:15 -3.4 °C -8.8 °C 34395 hPa ENE 15 km/h 15 km/h 55 % 0 mm
20:20 -3.4 °C -8.8 °C 34395 hPa ENE 11.9 km/h 11.9 km/h 55 % 0 mm
20:25 -3.5 °C -8.9 °C 34395 hPa ESE 15.3 km/h 15.3 km/h 55 % 0 mm
20:30 -3.6 °C -8.8 °C 34395 hPa ESE 11.9 km/h 11.9 km/h 56 % 0 mm
20:35 -3.6 °C -8.8 °C 34395 hPa NE 15 km/h 15 km/h 56 % 0 mm
20:40 -3.7 °C -8.7 °C 34395 hPa ESE 15 km/h 15 km/h 57 % 0 mm
20:45 -3.8 °C -8.8 °C 34428.8 hPa East 12.7 km/h 12.7 km/h 57 % 0 mm
20:50 -3.8 °C -8.9 °C 34428.8 hPa ENE 17.9 km/h 17.9 km/h 57 % 0 mm
20:55 -3.9 °C -8.9 °C 34428.8 hPa East 15 km/h 15 km/h 57 % 0 mm
21:00 -3.9 °C -8.8 °C 34428.8 hPa ESE 17.9 km/h 17.9 km/h 58 % 0 mm
21:05 -4 °C -8.9 °C 34428.8 hPa ESE 15.3 km/h 15.3 km/h 58 % 0 mm
21:10 -4.1 °C -8.8 °C 34428.8 hPa East 15 km/h 15 km/h 59 % 0 mm
21:15 -4.1 °C -8.7 °C 34428.8 hPa NNE 11.9 km/h 11.9 km/h 60 % 0 mm
21:20 -4.2 °C -8.8 °C 34428.8 hPa ESE 10.3 km/h 10.3 km/h 60 % 0 mm
21:25 -4.3 °C -8.8 °C 34428.8 hPa ENE 9 km/h 9 km/h 60 % 0 mm
21:30 -4.3 °C -8.7 °C 34496.6 hPa ESE 9 km/h 9 km/h 61 % 0 mm
21:31 -4.3 °C -8.7 °C 34496.6 hPa SE 9 km/h 9 km/h 61 % 0 mm
21:36 -4.3 °C -8.8 °C 34496.6 hPa ESE 14.5 km/h 14.5 km/h 61 % 0 mm
21:41 -4.3 °C -8.7 °C 34496.6 hPa East 6.3 km/h 6.3 km/h 62 % 0 mm
21:46 -4.4 °C -8.7 °C 34462.7 hPa NNE 9 km/h 9 km/h 62 % 0 mm
21:51 -4.4 °C -8.7 °C 34462.7 hPa ENE 9 km/h 9 km/h 62 % 0 mm
21:56 -4.4 °C -8.9 °C 34462.7 hPa East 9 km/h 9 km/h 61 % 0 mm
22:01 -4.4 °C -8.7 °C 34428.8 hPa ESE 6 km/h 6 km/h 62 % 0 mm
22:06 -4.4 °C -8.9 °C 34428.8 hPa ESE 9 km/h 9 km/h 61 % 0 mm
22:11 -4.5 °C -8.8 °C 34428.8 hPa NE 6 km/h 6 km/h 62 % 0 mm
22:16 -4.6 °C -8.7 °C 34462.7 hPa Calm     63 % 0 mm
22:21 -4.6 °C -8.7 °C 34462.7 hPa East 6 km/h 6 km/h 63 % 0 mm
22:26 -4.6 °C -8.8 °C 34462.7 hPa ESE 6 km/h 6 km/h 63 % 0 mm
22:31 -4.7 °C -8.8 °C 34462.7 hPa ENE 3.1 km/h 3.1 km/h 63 % 0 mm
22:32 -4.7 °C -8.8 °C 34462.7 hPa NE 6 km/h 6 km/h 63 % 0 mm
22:37 -4.7 °C -8.8 °C 34462.7 hPa NNE 6 km/h 6 km/h 63 % 0 mm
22:42 -4.7 °C -8.9 °C 34462.7 hPa NE 3.1 km/h   62 % 0 mm
22:47 -4.7 °C -9 °C 34462.7 hPa Calm     62 % 0 mm
22:52 -4.7 °C -9 °C 34462.7 hPa NE 3.1 km/h   62 % 0 mm
22:57 -4.7 °C -9.1 °C 34462.7 hPa ENE 6 km/h 6 km/h 61 % 0 mm
23:02 -4.8 °C -9.2 °C 34462.7 hPa Calm     61 % 0 mm
23:07 -4.8 °C -9.3 °C 34462.7 hPa Calm     61 % 0 mm
23:12 -4.8 °C -9.3 °C 34462.7 hPa Calm     61 % 0 mm
23:17 -4.9 °C -9.4 °C 34462.7 hPa Calm     60 % 0 mm
23:22 -4.9 °C -9.5 °C 34462.7 hPa NNW 3.1 km/h   60 % 0 mm
23:27 -5 °C -9.6 °C 34462.7 hPa Calm     60 % 0 mm
23:32 -5 °C -9.6 °C 34462.7 hPa NNE 3.1 km/h   60 % 0 mm
23:37 -5 °C -9.6 °C 34462.7 hPa NNE 3.1 km/h   60 % 0 mm
23:42 -5.1 °C -9.6 °C 34462.7 hPa NW 3.1 km/h   60 % 0 mm
23:47 -5.1 °C -9.6 °C 34462.7 hPa West 3.1 km/h 3.1 km/h 60 % 0 mm
23:52 -5.1 °C -9.6 °C 34462.7 hPa Calm     60 % 0 mm
23:57 -5.1 °C -9.7 °C 34462.7 hPa NNW 3.1 km/h   60 % 0 mm
Meteo Sesrovires
Elogis d' Weather Underground - 1.5 mb

Guio original per  Jim McMurry - jmcmurry@mwt.net Adaptat per a la plantilla per  Wim van der Kuil - Leuven-Template.eu

Trobareu la nostra informacio del temps tambe a:

Weather Underground

AWEKAS